Time;durP1;ratioP1;P1;durP2;ratioP2;P2;SDS_P1;SDS_P2;PMS_P1;PMS_P2;Temp;Humidity;BMP_temperature;BMP_pressure;BME280_temperature;BME280_humidity;BME280_pressure;Samples;Min_cycle;Max_cycle;Signal;HPM_P1;HPM_P2
2023/09/21 00:01:53;;;;;;;25.42;12.23;;;;;;;;;;4842781;29;20054;-75
2023/09/21 00:04:27;;;;;;;21.08;11.60;;;;;;;;;;4842706;29;20050;-76
2023/09/21 00:06:58;;;;;;;22.00;12.50;;;;;;;;;;4842250;29;20046;-76
2023/09/21 00:09:33;;;;;;;22.90;11.43;;;;;;;;;;4842672;29;20054;-76
2023/09/21 00:12:05;;;;;;;22.40;12.52;;;;;;;;;;4842209;29;20060;-76
2023/09/21 00:14:37;;;;;;;22.88;12.68;;;;;;;;;;4842410;29;20057;-76
2023/09/21 00:17:08;;;;;;;26.30;12.73;;;;;;;;;;4842315;29;20042;-76
2023/09/21 00:19:43;;;;;;;21.50;11.95;;;;;;;;;;4842588;29;20050;-76
2023/09/21 00:22:16;;;;;;;21.48;12.35;;;;;;;;;;4842514;29;20049;-76
2023/09/21 00:24:47;;;;;;;24.45;13.23;;;;;;;;;;4842889;29;20050;-76
2023/09/21 00:27:20;;;;;;;24.63;11.80;;;;;;;;;;4824352;29;20050;-75
2023/09/21 00:29:53;;;;;;;23.00;11.68;;;;;;;;;;4824045;29;20053;-76
2023/09/21 00:32:28;;;;;;;26.52;11.95;;;;;;;;;;4848053;29;20489;-77
2023/09/21 00:34:59;;;;;;;25.10;12.40;;;;;;;;;;4843908;29;20374;-75
2023/09/21 00:37:36;;;;;;;25.25;12.43;;;;;;;;;;4860725;29;20056;-75
2023/09/21 00:40:17;;;;;;;23.67;13.77;;;;;;;;;;4874135;29;20065;-75
2023/09/21 00:42:53;;;;;;;22.10;12.85;;;;;;;;;;4843434;29;20061;-76
2023/09/21 00:45:24;;;;;;;21.70;12.43;;;;;;;;;;4843837;29;20062;-75
2023/09/21 00:47:56;;;;;;;22.13;12.18;;;;;;;;;;4860972;29;20081;-75
2023/09/21 00:50:28;;;;;;;32.42;12.48;;;;;;;;;;4860477;29;20508;-76
2023/09/21 00:53:01;;;;;;;23.77;12.43;;;;;;;;;;4843188;29;20049;-76
2023/09/21 00:55:39;;;;;;;23.23;13.38;;;;;;;;;;4860527;29;20072;-76
2023/09/21 00:58:12;;;;;;;29.23;13.02;;;;;;;;;;4860444;29;20045;-76
2023/09/21 01:00:46;;;;;;;21.23;13.07;;;;;;;;;;4860408;29;20496;-76
2023/09/21 01:03:22;;;;;;;23.20;12.68;;;;;;;;;;4860313;29;20050;-75
2023/09/21 01:05:56;;;;;;;22.42;13.77;;;;;;;;;;4843466;29;20057;-76
2023/09/21 01:08:28;;;;;;;22.52;12.88;;;;;;;;;;4860096;29;20065;-77
2023/09/21 01:11:08;;;;;;;32.25;14.15;;;;;;;;;;4873302;29;20054;-76
2023/09/21 01:13:43;;;;;;;26.88;13.55;;;;;;;;;;4860274;29;20413;-78
2023/09/21 01:16:18;;;;;;;26.45;12.55;;;;;;;;;;4860247;29;20045;-76
2023/09/21 01:18:52;;;;;;;23.35;13.63;;;;;;;;;;4860927;29;20393;-77
2023/09/21 01:21:37;;;;;;;28.42;13.30;;;;;;;;;;4874049;29;20058;-77
2023/09/21 01:24:11;;;;;;;27.70;13.50;;;;;;;;;;4828238;29;20057;-76
2023/09/21 01:26:42;;;;;;;28.77;14.30;;;;;;;;;;4860009;29;20060;-77
2023/09/21 01:29:14;;;;;;;26.98;13.18;;;;;;;;;;4843325;29;20054;-77
2023/09/21 01:31:48;;;;;;;29.60;13.30;;;;;;;;;;4857852;29;20445;-76
2023/09/21 01:34:20;;;;;;;26.02;13.30;;;;;;;;;;4841189;29;20050;-75
2023/09/21 01:36:55;;;;;;;23.98;14.18;;;;;;;;;;4825203;29;20406;-76
2023/09/21 01:39:31;;;;;;;26.10;13.45;;;;;;;;;;4841534;29;20068;-76
2023/09/21 01:42:02;;;;;;;29.65;13.85;;;;;;;;;;4841153;29;20076;-75
2023/09/21 01:44:33;;;;;;;24.30;13.43;;;;;;;;;;4841807;29;20050;-76
2023/09/21 01:47:05;;;;;;;29.38;13.02;;;;;;;;;;4841179;29;20050;-76
2023/09/21 01:49:37;;;;;;;25.50;13.82;;;;;;;;;;4841330;29;20058;-77
2023/09/21 01:52:13;;;;;;;23.38;12.70;;;;;;;;;;4824865;29;20544;-76
2023/09/21 01:54:44;;;;;;;27.55;13.35;;;;;;;;;;4841688;29;20050;-76
2023/09/21 01:57:15;;;;;;;;;;;;;;;;;;4855351;29;20054;-76
2023/09/21 01:59:49;;;;;;;29.83;13.55;;;;;;;;;;4825668;29;19924;-76
2023/09/21 02:02:23;;;;;;;26.55;13.65;;;;;;;;;;4855576;29;20061;-77
2023/09/21 02:05:01;;;;;;;26.92;13.98;;;;;;;;;;4841073;29;20042;-76
2023/09/21 02:07:32;;;;;;;25.90;13.40;;;;;;;;;;4840190;29;20058;-76
2023/09/21 02:10:04;;;;;;;29.55;13.32;;;;;;;;;;4842589;29;20061;-76
2023/09/21 02:12:38;;;;;;;32.10;14.13;;;;;;;;;;4842401;29;20046;-76
2023/09/21 02:15:12;;;;;;;30.52;13.65;;;;;;;;;;4825431;29;20053;-77
2023/09/21 02:17:45;;;;;;;28.98;13.13;;;;;;;;;;4856388;29;20054;-76
2023/09/21 02:20:16;;;;;;;25.15;12.90;;;;;;;;;;4825635;29;20057;-76
2023/09/21 02:22:52;;;;;;;23.00;13.07;;;;;;;;;;4842153;29;20057;-76
2023/09/21 02:25:26;;;;;;;26.85;12.85;;;;;;;;;;4825284;29;20053;-76
2023/09/21 02:27:58;;;;;;;24.20;13.63;;;;;;;;;;4842132;29;20050;-76
2023/09/21 02:30:33;;;;;;;27.05;13.45;;;;;;;;;;4841937;29;20481;-76
2023/09/21 02:33:07;;;;;;;30.75;13.55;;;;;;;;;;4825150;29;20379;-75
2023/09/21 02:35:41;;;;;;;22.33;13.40;;;;;;;;;;4843851;29;20057;-75
2023/09/21 02:38:13;;;;;;;24.75;13.30;;;;;;;;;;4845477;29;20057;-75
2023/09/21 02:40:45;;;;;;;28.10;13.57;;;;;;;;;;4828348;29;20054;-76
2023/09/21 02:43:19;;;;;;;27.65;13.07;;;;;;;;;;4827966;29;20050;-75
2023/09/21 02:45:55;;;;;;;24.55;14.13;;;;;;;;;;4845429;29;20046;-76
2023/09/21 02:48:26;;;;;;;25.35;13.40;;;;;;;;;;4859434;29;20053;-75
2023/09/21 02:50:58;;;;;;;29.88;13.88;;;;;;;;;;4859011;29;20066;-76
2023/09/21 02:53:30;;;;;;;24.17;13.35;;;;;;;;;;4845353;29;20057;-75
2023/09/21 02:56:07;;;;;;;29.67;14.50;;;;;;;;;;4828919;29;20061;-75
2023/09/21 02:58:40;;;;;;;21.55;13.73;;;;;;;;;;4845219;29;20050;-76
2023/09/21 03:01:15;;;;;;;22.33;12.75;;;;;;;;;;4859069;29;20405;-76
2023/09/21 03:03:49;;;;;;;25.83;13.38;;;;;;;;;;4844913;29;20045;-76
2023/09/21 03:06:23;;;;;;;25.15;13.38;;;;;;;;;;4842757;29;20062;-76
2023/09/21 03:08:54;;;;;;;27.85;13.30;;;;;;;;;;4844284;29;20121;-76
2023/09/21 03:11:27;;;;;;;23.45;12.68;;;;;;;;;;4844853;29;20058;-76
2023/09/21 03:14:03;;;;;;;27.50;12.98;;;;;;;;;;4859244;29;20062;-77
2023/09/21 03:16:38;;;;;;;22.35;13.18;;;;;;;;;;4858126;29;20065;-76
2023/09/21 03:19:09;;;;;;;23.10;12.52;;;;;;;;;;4844875;29;20520;-76
2023/09/21 03:21:42;;;;;;;25.23;13.35;;;;;;;;;;4844709;29;20050;-75
2023/09/21 03:24:15;;;;;;;25.92;13.23;;;;;;;;;;4844684;29;20042;-76
2023/09/21 03:26:46;;;;;;;22.95;12.90;;;;;;;;;;4844350;29;20057;-76
2023/09/21 03:29:19;;;;;;;28.02;13.32;;;;;;;;;;4827644;29;20493;-76
2023/09/21 03:31:55;;;;;;;;;;;;;;;;;;4827870;29;20504;-76
2023/09/21 03:34:30;;;;;;;23.60;12.50;;;;;;;;;;4828072;29;19924;-76
2023/09/21 03:37:03;;;;;;;20.88;13.07;;;;;;;;;;4827540;29;20050;-76
2023/09/21 03:39:35;;;;;;;26.40;12.93;;;;;;;;;;4827637;29;20378;-76
2023/09/21 03:42:09;;;;;;;27.13;12.85;;;;;;;;;;4827384;29;20058;-75
2023/09/21 03:44:42;;;;;;;25.42;13.10;;;;;;;;;;4827522;29;20050;-75
2023/09/21 03:47:19;;;;;;;25.25;12.73;;;;;;;;;;4827306;29;20053;-75
2023/09/21 03:49:49;;;;;;;27.75;13.50;;;;;;;;;;4827694;29;20050;-75
2023/09/21 03:52:22;;;;;;;27.35;12.57;;;;;;;;;;4844234;29;20513;-76
2023/09/21 03:54:52;;;;;;;23.13;14.10;;;;;;;;;;4827699;29;20417;-75
2023/09/21 03:57:25;;;;;;;26.13;12.68;;;;;;;;;;4844259;29;20050;-75
2023/09/21 03:59:57;;;;;;;30.35;13.63;;;;;;;;;;4846746;29;20054;-76
2023/09/21 04:02:39;;;;;;;26.95;14.00;;;;;;;;;;4872655;29;20045;-76
2023/09/21 04:05:20;;;;;;;24.40;13.40;;;;;;;;;;4851360;29;20042;-75
2023/09/21 04:07:51;;;;;;;24.08;12.98;;;;;;;;;;4867397;29;20030;-76
2023/09/21 04:10:22;;;;;;;25.60;13.90;;;;;;;;;;4850641;29;20056;-75
2023/09/21 04:12:55;;;;;;;25.45;12.65;;;;;;;;;;4851618;29;20030;-76
2023/09/21 04:15:31;;;;;;;27.90;13.25;;;;;;;;;;4850926;29;20038;-77
2023/09/21 04:18:03;;;;;;;26.13;13.13;;;;;;;;;;4851180;29;20040;-78
2023/09/21 04:20:40;;;;;;;26.63;13.80;;;;;;;;;;4851137;29;20046;-77
2023/09/21 04:23:12;;;;;;;25.00;13.63;;;;;;;;;;4828963;29;20485;-77
2023/09/21 04:25:47;;;;;;;24.23;12.00;;;;;;;;;;4843892;29;20061;-77
2023/09/21 04:28:22;;;;;;;25.58;13.20;;;;;;;;;;4857667;29;20058;-76
2023/09/21 04:30:58;;;;;;;28.20;14.20;;;;;;;;;;4843243;29;20387;-75
2023/09/21 04:33:28;;;;;;;24.27;12.82;;;;;;;;;;4826040;29;20422;-76
2023/09/21 04:35:59;;;;;;;;;;;;;;;;;;4843919;29;20046;-76
2023/09/21 04:38:31;;;;;;;23.17;12.65;;;;;;;;;;4843272;29;19924;-76
2023/09/21 04:41:07;;;;;;;27.30;13.35;;;;;;;;;;4856930;29;20058;-77
2023/09/21 04:43:39;;;;;;;28.27;13.10;;;;;;;;;;4826802;29;20050;-76
2023/09/21 04:46:13;;;;;;;27.15;13.70;;;;;;;;;;4826161;29;20158;-76
2023/09/21 04:48:44;;;;;;;27.80;13.75;;;;;;;;;;4826432;29;20057;-76
2023/09/21 04:51:19;;;;;;;24.73;12.90;;;;;;;;;;4841773;29;20073;-76
2023/09/21 04:53:50;;;;;;;22.08;12.63;;;;;;;;;;4826776;29;20058;-76
2023/09/21 04:56:24;;;;;;;31.90;13.20;;;;;;;;;;4843272;29;20486;-74
2023/09/21 04:58:55;;;;;;;26.60;13.40;;;;;;;;;;4825352;29;20061;-75
2023/09/21 05:01:28;;;;;;;26.70;13.38;;;;;;;;;;4843684;29;20046;-75
2023/09/21 05:03:58;;;;;;;27.25;13.48;;;;;;;;;;4826399;29;20057;-76
2023/09/21 05:06:30;;;;;;;27.23;12.82;;;;;;;;;;4826072;29;20408;-76
2023/09/21 05:09:03;;;;;;;25.38;12.35;;;;;;;;;;4826183;29;20050;-76
2023/09/21 05:11:38;;;;;;;29.63;12.77;;;;;;;;;;4842996;29;20078;-76
2023/09/21 05:14:09;;;;;;;23.30;12.18;;;;;;;;;;4856728;29;20065;-77
2023/09/21 05:16:41;;;;;;;25.85;13.00;;;;;;;;;;4842452;29;20069;-76
2023/09/21 05:19:13;;;;;;;27.67;14.18;;;;;;;;;;4842469;29;20057;-76
2023/09/21 05:21:48;;;;;;;26.08;12.73;;;;;;;;;;4842441;29;20046;-77
2023/09/21 05:24:19;;;;;;;24.42;12.88;;;;;;;;;;4842891;29;20050;-76
2023/09/21 05:26:53;;;;;;;25.80;12.60;;;;;;;;;;4842438;29;20073;-76
2023/09/21 05:29:23;;;;;;;29.02;13.35;;;;;;;;;;4842979;29;20525;-76
2023/09/21 05:31:54;;;;;;;24.35;12.77;;;;;;;;;;4842187;29;20058;-76
2023/09/21 05:34:28;;;;;;;24.85;12.90;;;;;;;;;;4842626;29;20592;-76
2023/09/21 05:37:03;;;;;;;21.55;12.13;;;;;;;;;;4842691;29;20060;-77
2023/09/21 05:39:34;;;;;;;27.35;13.60;;;;;;;;;;4842929;29;20049;-77
2023/09/21 05:42:10;;;;;;;24.92;13.75;;;;;;;;;;4842641;29;20117;-77
2023/09/21 05:44:41;;;;;;;25.77;12.60;;;;;;;;;;4842657;29;20049;-76
2023/09/21 05:47:14;;;;;;;21.50;11.48;;;;;;;;;;4842393;29;20474;-77
2023/09/21 05:49:46;;;;;;;26.48;12.23;;;;;;;;;;4842104;29;20049;-77
2023/09/21 05:52:18;;;;;;;23.80;12.07;;;;;;;;;;4842416;29;20513;-77
2023/09/21 05:54:50;;;;;;;23.73;11.93;;;;;;;;;;4842441;29;20053;-77
2023/09/21 05:57:21;;;;;;;27.75;11.32;;;;;;;;;;4842644;29;20061;-76
2023/09/21 05:59:52;;;;;;;21.58;11.82;;;;;;;;;;4842172;29;20046;-76
2023/09/21 06:02:25;;;;;;;21.00;12.10;;;;;;;;;;4842513;29;20093;-76
2023/09/21 06:04:55;;;;;;;26.20;12.95;;;;;;;;;;4842556;29;20494;-76
2023/09/21 06:07:27;;;;;;;20.92;12.30;;;;;;;;;;4842199;29;20058;-76
2023/09/21 06:09:58;;;;;;;26.77;12.85;;;;;;;;;;4826926;29;20486;-76
2023/09/21 06:12:32;;;;;;;23.75;12.20;;;;;;;;;;4846174;29;20065;-76
2023/09/21 06:15:05;;;;;;;24.05;11.95;;;;;;;;;;4845784;29;20050;-76
2023/09/21 06:17:37;;;;;;;;;;;;;;;;;;4846143;29;20377;-76
2023/09/21 06:20:09;;;;;;;23.08;11.15;;;;;;;;;;4845365;29;19924;-76
2023/09/21 06:22:41;;;;;;;26.40;12.93;;;;;;;;;;4845135;29;20073;-76
2023/09/21 06:25:11;;;;;;;28.17;12.18;;;;;;;;;;4845855;29;20046;-76
2023/09/21 06:27:41;;;;;;;21.73;13.00;;;;;;;;;;4845319;29;20050;-76
2023/09/21 06:30:15;;;;;;;22.85;12.02;;;;;;;;;;4829902;29;20058;-76
2023/09/21 06:32:46;;;;;;;22.80;11.30;;;;;;;;;;4845505;29;20057;-77
2023/09/21 06:35:17;;;;;;;21.00;11.10;;;;;;;;;;4845515;29;20054;-77
2023/09/21 06:37:48;;;;;;;22.92;11.40;;;;;;;;;;4845841;29;20370;-76
2023/09/21 06:40:26;;;;;;;21.25;10.95;;;;;;;;;;4845082;29;20045;-76
2023/09/21 06:42:58;;;;;;;25.23;12.50;;;;;;;;;;4845531;29;20053;-76
2023/09/21 06:45:32;;;;;;;24.13;12.02;;;;;;;;;;4844825;29;20050;-77
2023/09/21 06:48:08;;;;;;;21.48;12.07;;;;;;;;;;4845125;29;20057;-76
2023/09/21 06:50:41;;;;;;;21.90;11.23;;;;;;;;;;4845143;29;20054;-77
2023/09/21 06:53:16;;;;;;;21.88;11.38;;;;;;;;;;4844990;29;20393;-78
2023/09/21 06:55:47;;;;;;;24.50;11.95;;;;;;;;;;4828657;29;20508;-76
2023/09/21 06:58:19;;;;;;;19.13;10.82;;;;;;;;;;4845394;29;20057;-76
2023/09/21 07:00:49;;;;;;;28.50;13.02;;;;;;;;;;4844882;29;20408;-76
2023/09/21 07:03:23;;;;;;;20.85;11.55;;;;;;;;;;4844919;29;20054;-78
2023/09/21 07:05:55;;;;;;;19.85;10.30;;;;;;;;;;4845111;29;20054;-76
2023/09/21 07:08:31;;;;;;;21.92;11.18;;;;;;;;;;4845082;29;20050;-77
2023/09/21 07:11:02;;;;;;;29.05;12.55;;;;;;;;;;4845046;29;20042;-77
2023/09/21 07:13:33;;;;;;;18.42;10.55;;;;;;;;;;4844830;29;20042;-76
2023/09/21 07:16:03;;;;;;;21.02;11.35;;;;;;;;;;4845158;29;20390;-77
2023/09/21 07:18:36;;;;;;;22.20;12.25;;;;;;;;;;4844517;29;20053;-77
2023/09/21 07:21:08;;;;;;;21.13;11.43;;;;;;;;;;4844445;29;20042;-76
2023/09/21 07:23:42;;;;;;;;;;;;;;;;;;4844734;29;20050;-76
2023/09/21 07:26:15;;;;;;;24.60;11.25;;;;;;;;;;4844514;29;20387;-77
2023/09/21 07:28:46;;;;;;;20.60;11.10;;;;;;;;;;4844891;29;20050;-77
2023/09/21 07:31:17;;;;;;;21.52;10.77;;;;;;;;;;4844692;29;20046;-76
2023/09/21 07:33:56;;;;;;;27.33;10.80;;;;;;;;;;4844538;29;20054;-76
2023/09/21 07:36:26;;;;;;;21.20;10.30;;;;;;;;;;4844358;29;20046;-77
2023/09/21 07:38:57;;;;;;;19.23;10.60;;;;;;;;;;4844133;29;20410;-76
2023/09/21 07:41:30;;;;;;;24.67;10.75;;;;;;;;;;4844298;29;20046;-76
2023/09/21 07:44:03;;;;;;;24.05;11.25;;;;;;;;;;4843906;29;20050;-77
2023/09/21 07:46:37;;;;;;;20.15;11.30;;;;;;;;;;4844178;29;20065;-76
2023/09/21 07:49:09;;;;;;;22.42;11.60;;;;;;;;;;4843917;29;20057;-76
2023/09/21 07:51:41;;;;;;;19.48;10.48;;;;;;;;;;4844433;29;20062;-77
2023/09/21 07:54:13;;;;;;;22.75;10.93;;;;;;;;;;4844529;29;20389;-77
2023/09/21 07:56:45;;;;;;;20.02;10.43;;;;;;;;;;4844268;29;20045;-77
2023/09/21 07:59:17;;;;;;;20.20;10.27;;;;;;;;;;4843968;29;20165;-77
2023/09/21 08:01:48;;;;;;;17.88;9.80;;;;;;;;;;4843747;29;20060;-77
2023/09/21 08:04:21;;;;;;;18.42;10.35;;;;;;;;;;4844177;29;20050;-75
2023/09/21 08:06:52;;;;;;;20.50;10.75;;;;;;;;;;4844142;29;20061;-77
2023/09/21 08:09:22;;;;;;;19.85;10.32;;;;;;;;;;4844068;29;20038;-77
2023/09/21 08:12:06;;;;;;;23.45;10.15;;;;;;;;;;4843918;29;20050;-77
2023/09/21 08:14:38;;;;;;;21.40;9.77;;;;;;;;;;4843782;29;20054;-77
2023/09/21 08:17:10;;;;;;;18.65;9.30;;;;;;;;;;4843572;29;20061;-77
2023/09/21 08:19:40;;;;;;;24.13;10.90;;;;;;;;;;4843560;29;20050;-77
2023/09/21 08:22:14;;;;;;;19.08;10.07;;;;;;;;;;4843585;29;20058;-77
2023/09/21 08:24:48;;;;;;;22.77;10.85;;;;;;;;;;4843362;29;20050;-77
2023/09/21 08:27:22;;;;;;;18.55;9.98;;;;;;;;;;4843627;29;20050;-77
2023/09/21 08:29:53;;;;;;;24.63;10.57;;;;;;;;;;4843011;29;20054;-76
2023/09/21 08:32:26;;;;;;;21.50;10.65;;;;;;;;;;4843147;29;20065;-77
2023/09/21 08:34:57;;;;;;;17.58;9.98;;;;;;;;;;4843113;29;20382;-77
2023/09/21 08:37:28;;;;;;;22.70;10.30;;;;;;;;;;4843588;29;20049;-76
2023/09/21 08:40:02;;;;;;;22.60;10.02;;;;;;;;;;4827588;29;20049;-77
2023/09/21 08:42:37;;;;;;;21.15;10.30;;;;;;;;;;4843532;29;20061;-76
2023/09/21 08:45:11;;;;;;;22.55;10.77;;;;;;;;;;4844144;29;20057;-77
2023/09/21 08:47:46;;;;;;;20.63;9.90;;;;;;;;;;4843111;29;20046;-77
2023/09/21 08:50:18;;;;;;;25.83;10.80;;;;;;;;;;4827369;29;20053;-77
2023/09/21 08:52:53;;;;;;;21.13;10.02;;;;;;;;;;4842810;29;20054;-76
2023/09/21 08:55:28;;;;;;;24.35;10.10;;;;;;;;;;4843025;29;20057;-77
2023/09/21 08:57:59;;;;;;;20.67;9.88;;;;;;;;;;4843491;29;20046;-77
2023/09/21 09:00:34;;;;;;;24.95;9.93;;;;;;;;;;4842558;29;20054;-77
2023/09/21 09:03:07;;;;;;;19.38;10.80;;;;;;;;;;4842669;29;20125;-77
2023/09/21 09:05:41;;;;;;;19.65;9.77;;;;;;;;;;4827031;29;20054;-76
2023/09/21 09:08:12;;;;;;;27.30;10.13;;;;;;;;;;4843093;29;20052;-76
2023/09/21 09:10:44;;;;;;;20.98;9.85;;;;;;;;;;4843168;29;20050;-77
2023/09/21 09:13:18;;;;;;;22.35;10.20;;;;;;;;;;4842501;29;20072;-76
2023/09/21 09:15:52;;;;;;;19.27;10.27;;;;;;;;;;4842402;29;20049;-76
2023/09/21 09:18:22;;;;;;;20.05;10.65;;;;;;;;;;4842489;29;20054;-77
2023/09/21 09:20:55;;;;;;;19.33;9.88;;;;;;;;;;4842610;29;20502;-76
2023/09/21 09:23:27;;;;;;;20.27;10.30;;;;;;;;;;4843029;29;20065;-76
2023/09/21 09:26:08;;;;;;;20.52;11.48;;;;;;;;;;4842756;29;20407;-76
2023/09/21 09:28:38;;;;;;;18.27;9.05;;;;;;;;;;4842358;29;20062;-77
2023/09/21 09:31:11;;;;;;;20.52;10.05;;;;;;;;;;4843304;29;20088;-75
2023/09/21 09:33:48;;;;;;;19.55;9.75;;;;;;;;;;4842811;29;20370;-75
2023/09/21 09:36:22;;;;;;;21.05;9.25;;;;;;;;;;4842692;29;20524;-76
2023/09/21 09:38:53;;;;;;;20.70;10.95;;;;;;;;;;4842507;29;20049;-76
2023/09/21 09:41:26;;;;;;;21.45;9.88;;;;;;;;;;4842676;29;20046;-75
2023/09/21 09:44:05;;;;;;;25.25;10.65;;;;;;;;;;4842288;29;20042;-75
2023/09/21 09:46:44;;;;;;;21.58;10.05;;;;;;;;;;4845400;29;20049;-76
2023/09/21 09:49:18;;;;;;;21.00;10.60;;;;;;;;;;4846441;29;20049;-76
2023/09/21 09:51:54;;;;;;;25.25;11.18;;;;;;;;;;4846400;29;20057;-76
2023/09/21 09:54:27;;;;;;;23.38;11.10;;;;;;;;;;4845782;29;20520;-77
2023/09/21 09:57:01;;;;;;;20.08;11.32;;;;;;;;;;4845614;29;20057;-77
2023/09/21 09:59:35;;;;;;;27.00;11.18;;;;;;;;;;4846750;29;20060;-76
2023/09/21 10:02:07;;;;;;;23.75;11.07;;;;;;;;;;4846111;29;20498;-76
2023/09/21 10:04:40;;;;;;;19.02;11.63;;;;;;;;;;4846080;29;20125;-76
2023/09/21 10:07:17;;;;;;;20.20;10.77;;;;;;;;;;4845874;29;20050;-76
2023/09/21 10:09:48;;;;;;;23.77;11.13;;;;;;;;;;4845307;29;20520;-76
2023/09/21 10:12:22;;;;;;;19.88;10.50;;;;;;;;;;4844282;29;20053;-76
2023/09/21 10:14:57;;;;;;;25.55;12.18;;;;;;;;;;4844422;29;20050;-76
2023/09/21 10:17:31;;;;;;;19.05;9.95;;;;;;;;;;4827566;29;20060;-76
2023/09/21 10:20:15;;;;;;;26.35;10.25;;;;;;;;;;4827542;29;20414;-76
2023/09/21 10:22:48;;;;;;;25.17;10.00;;;;;;;;;;4843188;29;20535;-76
2023/09/21 10:25:46;;;;;;;19.25;10.32;;;;;;;;;;4841558;29;20055;-77
2023/09/21 10:28:29;;;;;;;18.13;9.48;;;;;;;;;;4843714;29;20409;-76
2023/09/21 10:31:11;;;;;;;23.35;9.82;;;;;;;;;;4845315;29;20053;-76
2023/09/21 10:33:51;;;;;;;22.05;11.23;;;;;;;;;;4862451;29;20440;-76
2023/09/21 10:36:28;;;;;;;20.77;10.63;;;;;;;;;;4869006;29;20049;-77
2023/09/21 10:39:11;;;;;;;20.75;10.00;;;;;;;;;;4863283;29;20053;-77
2023/09/21 10:41:43;;;;;;;22.92;10.18;;;;;;;;;;4863412;29;20049;-77
2023/09/21 10:44:51;;;;;;;23.92;10.23;;;;;;;;;;4863680;29;20056;-75
2023/09/21 10:47:30;;;;;;;19.40;9.93;;;;;;;;;;4862363;29;20515;-75
2023/09/21 10:50:06;;;;;;;23.13;10.15;;;;;;;;;;4861722;29;20467;-75
2023/09/21 10:52:39;;;;;;;17.98;10.23;;;;;;;;;;4862481;29;20052;-75
2023/09/21 10:55:14;;;;;;;19.23;10.05;;;;;;;;;;4860092;29;20424;-75
2023/09/21 10:57:46;;;;;;;21.00;9.82;;;;;;;;;;4860855;29;20042;-75
2023/09/21 11:00:20;;;;;;;22.23;9.73;;;;;;;;;;4861742;29;20049;-75
2023/09/21 11:02:53;;;;;;;17.30;9.25;;;;;;;;;;4860508;29;20057;-76
2023/09/21 11:05:25;;;;;;;20.27;9.88;;;;;;;;;;4862684;29;20060;-76
2023/09/21 11:08:00;;;;;;;15.88;9.55;;;;;;;;;;4863024;29;20049;-76
2023/09/21 11:10:31;;;;;;;16.75;9.45;;;;;;;;;;4866256;29;20061;-76
2023/09/21 11:13:03;;;;;;;17.27;9.18;;;;;;;;;;4885104;29;20064;-77
2023/09/21 11:15:35;;;;;;;22.50;10.02;;;;;;;;;;4886454;29;20033;-77
2023/09/21 11:18:05;;;;;;;23.42;9.52;;;;;;;;;;4885013;29;20038;-76
2023/09/21 11:20:39;;;;;;;;;;;;;;;;;;4876017;29;20037;-77
2023/09/21 11:23:12;;;;;;;19.13;10.90;;;;;;;;;;4885696;29;19924;-79
2023/09/21 11:25:49;;;;;;;19.88;9.35;;;;;;;;;;4885777;29;20036;-78
2023/09/21 11:28:23;;;;;;;17.85;8.90;;;;;;;;;;4885523;29;20013;-77
2023/09/21 11:30:58;;;;;;;19.13;10.05;;;;;;;;;;4870193;29;20033;-78
2023/09/21 11:33:30;;;;;;;20.38;10.65;;;;;;;;;;4866113;29;20058;-76
2023/09/21 11:36:04;;;;;;;19.05;9.20;;;;;;;;;;4861328;29;20438;-77
2023/09/21 11:38:36;;;;;;;20.25;9.27;;;;;;;;;;4860736;29;20050;-76
2023/09/21 11:41:11;;;;;;;;;;;;;;;;;;4861990;29;20053;-77
2023/09/21 11:43:50;;;;;;;24.25;8.45;;;;;;;;;;4861289;29;20272;-77
2023/09/21 11:46:24;;;;;;;20.42;8.73;;;;;;;;;;4861630;29;20072;-77
2023/09/21 11:48:59;;;;;;;19.70;9.35;;;;;;;;;;4861318;29;20543;-77
2023/09/21 11:51:31;;;;;;;24.83;11.02;;;;;;;;;;4861514;29;20049;-78
2023/09/21 11:54:05;;;;;;;21.15;8.98;;;;;;;;;;4861260;29;20416;-77
2023/09/21 11:56:42;;;;;;;18.33;8.45;;;;;;;;;;4861111;29;20057;-77
2023/09/21 11:59:15;;;;;;;17.88;7.68;;;;;;;;;;4861445;29;20479;-78
2023/09/21 12:01:48;;;;;;;12.95;7.60;;;;;;;;;;4861117;29;20045;-77
2023/09/21 12:04:25;;;;;;;13.68;7.93;;;;;;;;;;4860022;29;20045;-77
2023/09/21 12:06:59;;;;;;;15.13;8.38;;;;;;;;;;4860683;29;20167;-78
2023/09/21 12:09:29;;;;;;;11.93;7.32;;;;;;;;;;4842218;29;20524;-78
2023/09/21 12:12:00;;;;;;;18.45;7.00;;;;;;;;;;4841895;29;20050;-79
2023/09/21 12:14:35;;;;;;;13.30;7.05;;;;;;;;;;4842882;29;20060;-79
2023/09/21 12:17:09;;;;;;;12.45;7.10;;;;;;;;;;4842080;29;20053;-79
2023/09/21 12:19:39;;;;;;;12.40;7.40;;;;;;;;;;4842227;29;20057;-78
2023/09/21 12:22:11;;;;;;;11.80;6.72;;;;;;;;;;4842095;29;20451;-79
2023/09/21 12:24:44;;;;;;;11.45;7.25;;;;;;;;;;4843580;29;20057;-78
2023/09/21 12:27:14;;;;;;;11.45;7.57;;;;;;;;;;4860337;29;20048;-78
2023/09/21 12:29:44;;;;;;;12.75;7.63;;;;;;;;;;4860658;29;20050;-77
2023/09/21 12:32:16;;;;;;;12.88;6.72;;;;;;;;;;4860274;29;20065;-77
2023/09/21 12:34:54;;;;;;;12.77;7.47;;;;;;;;;;4865817;29;20056;-77
2023/09/21 12:37:25;;;;;;;12.90;8.13;;;;;;;;;;4879749;29;20049;-78
2023/09/21 12:39:58;;;;;;;14.20;7.38;;;;;;;;;;4879682;29;20056;-78
2023/09/21 12:42:28;;;;;;;16.27;7.18;;;;;;;;;;4879540;29;20048;-78
2023/09/21 12:45:02;;;;;;;12.32;7.45;;;;;;;;;;4879457;29;20052;-77
2023/09/21 12:47:33;;;;;;;14.55;7.60;;;;;;;;;;4863248;29;20049;-78
2023/09/21 12:50:06;;;;;;;12.80;7.18;;;;;;;;;;4879653;29;20052;-79
2023/09/21 12:52:42;;;;;;;;;;;;;;;;;;4880218;29;20049;-78
2023/09/21 12:55:16;;;;;;;13.25;6.88;;;;;;;;;;4879776;29;19923;-77
2023/09/21 12:57:52;;;;;;;12.48;6.93;;;;;;;;;;4880037;29;20056;-78
2023/09/21 13:00:23;;;;;;;11.48;6.90;;;;;;;;;;4879614;29;20378;-78
2023/09/21 13:02:55;;;;;;;11.15;7.40;;;;;;;;;;4879811;29;20052;-82
2023/09/21 13:05:27;;;;;;;11.30;7.30;;;;;;;;;;4879909;29;20045;-82
2023/09/21 13:07:59;;;;;;;12.18;7.35;;;;;;;;;;4863769;29;20049;-81
2023/09/21 13:10:30;;;;;;;12.43;7.10;;;;;;;;;;4870629;29;20465;-82
2023/09/21 13:13:01;;;;;;;12.63;7.43;;;;;;;;;;4860987;29;20120;-83
2023/09/21 13:15:32;;;;;;;15.93;7.05;;;;;;;;;;4853844;29;20516;-82
2023/09/21 13:18:04;;;;;;;11.23;7.10;;;;;;;;;;4845513;29;20054;-81
2023/09/21 13:20:34;;;;;;;11.90;6.97;;;;;;;;;;4859046;29;20045;-80
2023/09/21 13:23:04;;;;;;;14.93;7.68;;;;;;;;;;4859764;29;20050;-81
2023/09/21 13:25:40;;;;;;;11.95;7.03;;;;;;;;;;4860435;29;20061;-82
2023/09/21 13:28:11;;;;;;;15.27;7.45;;;;;;;;;;4844517;29;20404;-82
2023/09/21 13:30:43;;;;;;;14.48;7.05;;;;;;;;;;4860454;29;20485;-81
2023/09/21 13:33:14;;;;;;;14.13;7.53;;;;;;;;;;4860171;29;20513;-81
2023/09/21 13:35:46;;;;;;;15.63;7.55;;;;;;;;;;4860524;29;20060;-83
2023/09/21 13:38:18;;;;;;;18.08;8.75;;;;;;;;;;4860448;29;20052;-86
2023/09/21 13:40:48;;;;;;;11.25;7.72;;;;;;;;;;4860059;29;20064;-81
2023/09/21 13:43:21;;;;;;;13.55;8.10;;;;;;;;;;4860621;29;20046;-83
2023/09/21 13:45:52;;;;;;;14.27;7.55;;;;;;;;;;4860630;29;20485;-83
2023/09/21 13:48:26;;;;;;;17.65;8.68;;;;;;;;;;4844353;29;20083;-83
2023/09/21 13:51:00;;;;;;;12.80;8.93;;;;;;;;;;4860753;29;20049;-82
2023/09/21 13:53:31;;;;;;;21.80;11.85;;;;;;;;;;4860364;29;20414;-82
2023/09/21 13:56:03;;;;;;;19.63;12.10;;;;;;;;;;4860754;29;20493;-82
2023/09/21 13:58:34;;;;;;;20.42;11.82;;;;;;;;;;4860915;29;20048;-83
2023/09/21 14:01:05;;;;;;;13.63;8.65;;;;;;;;;;4860614;29;20049;-83
2023/09/21 14:03:38;;;;;;;14.77;8.20;;;;;;;;;;4859714;29;20049;-82
2023/09/21 14:06:13;;;;;;;15.48;7.53;;;;;;;;;;4855933;29;20056;-81
2023/09/21 14:08:45;;;;;;;12.20;7.93;;;;;;;;;;4858405;29;20053;-82
2023/09/21 14:11:16;;;;;;;13.25;7.72;;;;;;;;;;4860263;29;20037;-82
2023/09/21 14:13:50;;;;;;;12.15;7.47;;;;;;;;;;4877347;29;20504;-82
2023/09/21 14:16:22;;;;;;;12.05;6.97;;;;;;;;;;4863041;29;20496;-82
2023/09/21 14:18:55;;;;;;;16.65;7.55;;;;;;;;;;4857318;29;20053;-83
2023/09/21 14:21:26;;;;;;;14.13;7.90;;;;;;;;;;4857408;29;20046;-79
2023/09/21 14:24:00;;;;;;;16.00;8.05;;;;;;;;;;4859158;29;20054;-79
2023/09/21 14:26:31;;;;;;;15.82;7.90;;;;;;;;;;4859301;29;20054;-78
2023/09/21 14:29:02;;;;;;;12.82;7.30;;;;;;;;;;4859522;29;20057;-78
2023/09/21 14:31:34;;;;;;;15.45;7.72;;;;;;;;;;4844817;29;20049;-78
2023/09/21 14:34:04;;;;;;;16.15;8.20;;;;;;;;;;4862368;29;20049;-79
2023/09/21 14:36:38;;;;;;;13.60;7.82;;;;;;;;;;4862879;29;20057;-79
2023/09/21 14:39:13;;;;;;;15.13;8.25;;;;;;;;;;4863243;29;20124;-80
2023/09/21 14:41:45;;;;;;;13.68;7.75;;;;;;;;;;4862832;29;20057;-79
2023/09/21 14:44:15;;;;;;;12.60;7.88;;;;;;;;;;4862941;29;20421;-80
2023/09/21 14:46:45;;;;;;;14.02;7.10;;;;;;;;;;4862563;29;20382;-80
2023/09/21 14:49:17;;;;;;;12.35;7.35;;;;;;;;;;4862738;29;20053;-81
2023/09/21 14:51:49;;;;;;;16.30;8.30;;;;;;;;;;4864089;29;20081;-81
2023/09/21 14:54:21;;;;;;;14.60;8.40;;;;;;;;;;4861642;29;20049;-81
2023/09/21 14:56:51;;;;;;;16.92;9.57;;;;;;;;;;4861966;29;20053;-83
2023/09/21 14:59:23;;;;;;;17.25;8.60;;;;;;;;;;4846903;29;20049;-81